Jonesboro, Oregon
Current Conditions -  °F | °C
As of 1:53 AM on Monday 20 Oct 2014 (Local Time) from KONO Reporting Station
Clear Clear  
Wind Chill: 44°   Ceiling: Unl
Heat Index: 44°   Visibility: 10mi
Dew Point: 34°   Wind: 3mph
Humidity: 68%   Direction: 270°W
Pressure: 29.86"   Gusts: NA
Location:  43.79°N, 117.941°W
Report Text: KONO 200753Z AUTO 27003KT 10SM CLR 07/01 A2986 RMK AO2 SLP111 T00670011
Loading
Personal Weather Stations






























Interactive Weather Map
Tropical Storm Tracking
New forecast layout! Learn more

10-Day Weather Forecast

Advertisements
Track Severe Weather on mobile